createdAt,value
2022-12-08T00:00:07.312Z,95.07
2022-12-08T00:02:38.681Z,95.66
2022-12-08T00:05:24.402Z,95.49
2022-12-08T00:08:09.727Z,95.21
2022-12-08T00:10:51.535Z,95.62
2022-12-08T00:13:18.268Z,95.50
2022-12-08T00:15:45.067Z,95.83
2022-12-08T00:18:11.748Z,95.66
2022-12-08T00:20:38.354Z,95.82
2022-12-08T00:23:05.007Z,95.61
2022-12-08T00:25:32.196Z,95.62
2022-12-08T00:27:58.864Z,95.45
2022-12-08T00:30:25.449Z,95.50
2022-12-08T00:32:52.092Z,95.42
2022-12-08T00:35:19.039Z,95.22
2022-12-08T00:37:45.742Z,95.54
2022-12-08T00:40:12.439Z,95.79
2022-12-08T00:42:39.171Z,95.62
2022-12-08T00:45:06.415Z,95.21
2022-12-08T00:47:33.010Z,95.71
2022-12-08T00:49:59.699Z,95.64
2022-12-08T00:52:26.301Z,95.31
2022-12-08T00:54:52.852Z,95.40
2022-12-08T00:57:19.464Z,95.22
2022-12-08T00:59:46.070Z,95.02
2022-12-08T01:02:12.676Z,95.12
2022-12-08T01:04:39.353Z,95.22
2022-12-08T01:07:05.998Z,95.28
2022-12-08T01:09:32.666Z,95.61
2022-12-08T01:11:59.335Z,95.18
2022-12-08T01:14:26.114Z,95.21
2022-12-08T01:16:53.163Z,95.15
2022-12-08T01:19:20.107Z,95.30
2022-12-08T01:21:47.392Z,95.49
2022-12-08T01:24:16.780Z,95.21
2022-12-08T01:26:43.566Z,95.02
2022-12-08T01:29:10.917Z,94.64
2022-12-08T01:31:38.606Z,94.23
2022-12-08T01:34:05.620Z,93.92
2022-12-08T01:36:34.121Z,93.77
2022-12-08T01:39:02.283Z,93.08
2022-12-08T01:41:31.898Z,93.16
2022-12-08T01:44:22.736Z,92.20
2022-12-08T01:46:52.751Z,92.59
2022-12-08T01:49:32.936Z,92.03
2022-12-08T01:52:08.772Z,91.35
2022-12-08T01:54:42.052Z,91.58
2022-12-08T01:57:20.654Z,91.39
2022-12-08T01:59:57.058Z,91.67
2022-12-08T02:02:26.536Z,91.78
2022-12-08T02:04:53.218Z,91.50
2022-12-08T02:07:20.486Z,91.10
2022-12-08T02:09:47.731Z,90.98
2022-12-08T02:12:14.865Z,91.39
2022-12-08T02:14:41.517Z,91.27
2022-12-08T02:17:43.464Z,91.43
2022-12-08T02:20:35.887Z,91.48
2022-12-08T02:23:27.172Z,91.11
2022-12-08T02:26:17.973Z,91.22
2022-12-08T02:29:12.279Z,91.20
2022-12-08T02:31:58.360Z,91.87
2022-12-08T02:34:35.687Z,91.72
2022-12-08T02:37:10.120Z,92.18
2022-12-08T02:39:51.017Z,91.99
2022-12-08T02:42:48.536Z,91.81
2022-12-08T02:45:22.621Z,92.15
2022-12-08T02:47:49.918Z,91.77
2022-12-08T02:50:16.573Z,92.04
2022-12-08T02:52:45.615Z,91.84
2022-12-08T02:55:36.485Z,91.77
2022-12-08T02:58:24.388Z,91.46
2022-12-08T03:01:05.420Z,91.32
2022-12-08T03:03:46.490Z,91.32
2022-12-08T03:06:32.868Z,91.07
2022-12-08T03:09:20.005Z,91.66
2022-12-08T03:12:09.594Z,91.22
2022-12-08T03:14:38.876Z,90.89
2022-12-08T03:17:06.654Z,91.51
2022-12-08T03:19:38.023Z,91.16
2022-12-08T03:22:07.084Z,90.91
2022-12-08T03:24:37.995Z,91.27
2022-12-08T03:27:13.993Z,91.26
2022-12-08T03:29:40.938Z,90.76
2022-12-08T03:32:32.470Z,90.86
2022-12-08T03:35:03.191Z,90.92
2022-12-08T03:37:30.286Z,90.94
2022-12-08T03:39:56.992Z,90.31
2022-12-08T03:42:23.618Z,90.70
2022-12-08T03:44:50.336Z,90.41
2022-12-08T03:47:16.933Z,90.22
2022-12-08T03:49:43.559Z,90.16
2022-12-08T03:52:10.231Z,90.60
2022-12-08T03:54:36.880Z,91.23
2022-12-08T03:57:03.569Z,91.45
2022-12-08T03:59:30.281Z,91.99
2022-12-08T04:01:57.104Z,92.48
2022-12-08T04:04:23.974Z,93.40
2022-12-08T04:06:51.634Z,93.78
2022-12-08T04:09:18.769Z,93.84
2022-12-08T04:11:45.832Z,94.25
2022-12-08T04:14:13.394Z,93.89
2022-12-08T04:16:47.369Z,93.72
2022-12-08T04:19:15.293Z,93.46
2022-12-08T04:21:41.990Z,92.31
2022-12-08T04:24:09.338Z,91.99
2022-12-08T04:26:36.111Z,90.96
2022-12-08T04:29:02.778Z,90.65
2022-12-08T04:31:29.466Z,90.58
2022-12-08T04:33:56.273Z,90.47
2022-12-08T04:36:22.958Z,90.56
2022-12-08T04:38:49.633Z,90.81
2022-12-08T04:41:16.510Z,89.21
2022-12-08T04:43:44.361Z,89.58
2022-12-08T04:46:12.992Z,89.07
2022-12-08T04:48:41.184Z,88.99
2022-12-08T04:51:15.863Z,88.04
2022-12-08T04:53:46.440Z,86.65
2022-12-08T04:56:16.062Z,86.99
2022-12-08T04:58:43.733Z,85.94
2022-12-08T05:01:11.120Z,85.84
2022-12-08T05:03:38.252Z,85.52
2022-12-08T05:06:05.348Z,85.02
2022-12-08T05:08:32.471Z,85.00
2022-12-08T05:11:04.541Z,84.11
2022-12-08T05:13:32.009Z,83.64
2022-12-08T05:16:05.207Z,82.91
2022-12-08T05:18:31.989Z,82.27
2022-12-08T05:20:59.143Z,82.22
2022-12-08T05:23:26.187Z,82.26
2022-12-08T05:25:52.902Z,82.23
2022-12-08T05:28:40.679Z,82.66
2022-12-08T05:31:06.325Z,82.29
2022-12-08T05:33:33.002Z,81.80
2022-12-08T05:35:59.610Z,81.62
2022-12-08T05:38:26.335Z,81.47
2022-12-08T05:40:52.995Z,81.58
2022-12-08T05:43:19.897Z,81.43
2022-12-08T05:45:46.626Z,80.96
2022-12-08T05:48:13.399Z,80.77
2022-12-08T05:50:40.398Z,80.78
2022-12-08T05:53:07.259Z,80.53
2022-12-08T05:55:34.142Z,80.18
2022-12-08T05:58:06.135Z,80.67
2022-12-08T06:00:34.878Z,80.10
2022-12-08T06:03:01.762Z,80.56
2022-12-08T06:05:28.483Z,79.98
2022-12-08T06:07:55.586Z,80.23
2022-12-08T06:10:22.325Z,80.58
2022-12-08T06:12:48.945Z,80.05
2022-12-08T06:15:15.856Z,78.71
2022-12-08T06:17:42.568Z,78.46
2022-12-08T06:20:09.960Z,78.61
2022-12-08T06:22:37.178Z,78.41
2022-12-08T06:25:07.275Z,78.92
2022-12-08T06:27:36.482Z,78.82
2022-12-08T06:30:04.442Z,79.68
2022-12-08T06:32:31.341Z,79.80
2022-12-08T06:34:58.176Z,80.43
2022-12-08T06:37:24.922Z,80.38
2022-12-08T06:39:51.952Z,80.78
2022-12-08T06:42:37.259Z,80.94
2022-12-08T06:45:04.183Z,80.92
2022-12-08T06:47:31.010Z,81.14
2022-12-08T06:49:57.847Z,80.74
2022-12-08T06:52:24.597Z,80.65
2022-12-08T06:54:51.607Z,80.79
2022-12-08T06:57:21.575Z,81.42
2022-12-08T06:59:48.259Z,81.53
2022-12-08T07:02:15.063Z,81.81
2022-12-08T07:04:41.769Z,82.13
2022-12-08T07:07:08.501Z,81.74
2022-12-08T07:09:35.353Z,81.76
2022-12-08T07:12:02.612Z,82.21
2022-12-08T07:14:29.822Z,81.21
2022-12-08T07:16:56.540Z,81.63
2022-12-08T07:19:23.652Z,81.23
2022-12-08T07:21:50.427Z,81.17
2022-12-08T07:24:17.183Z,81.12
2022-12-08T07:26:44.337Z,80.51
2022-12-08T07:29:11.144Z,80.73
2022-12-08T07:31:37.982Z,80.06
2022-12-08T07:34:04.698Z,79.72
2022-12-08T07:36:32.779Z,79.49
2022-12-08T07:39:00.000Z,79.00
2022-12-08T07:41:26.894Z,78.53
2022-12-08T07:43:53.992Z,78.68
2022-12-08T07:46:23.117Z,78.73
2022-12-08T07:48:49.982Z,79.20
2022-12-08T07:51:17.210Z,78.84
2022-12-08T07:53:51.683Z,79.29
2022-12-08T07:56:20.670Z,79.20
2022-12-08T07:58:47.368Z,79.25
2022-12-08T08:01:26.151Z,79.40
2022-12-08T08:03:54.673Z,79.71
2022-12-08T08:06:21.794Z,79.23
2022-12-08T08:08:48.611Z,79.70
2022-12-08T08:11:20.898Z,79.93
2022-12-08T08:13:50.261Z,80.38
2022-12-08T08:16:18.036Z,79.77
2022-12-08T08:18:47.752Z,79.62
2022-12-08T08:21:45.545Z,79.92
2022-12-08T08:24:01.657Z,79.45
2022-12-08T08:26:29.039Z,79.70
2022-12-08T08:28:55.816Z,79.99
2022-12-08T08:31:27.191Z,79.39
2022-12-08T08:33:55.765Z,78.94
2022-12-08T08:36:22.539Z,78.43
2022-12-08T08:38:49.271Z,78.35
2022-12-08T08:41:16.178Z,77.99
2022-12-08T08:43:42.894Z,78.18
2022-12-08T08:46:10.210Z,78.08
2022-12-08T08:48:37.771Z,77.74
2022-12-08T08:51:09.698Z,78.37
2022-12-08T08:53:36.981Z,78.60
2022-12-08T08:56:05.212Z,78.29
2022-12-08T08:58:31.857Z,78.11
2022-12-08T09:00:58.706Z,77.61
2022-12-08T09:03:25.445Z,77.54
2022-12-08T09:05:52.183Z,77.80
2022-12-08T09:08:19.100Z,78.06
2022-12-08T09:10:45.900Z,78.94
2022-12-08T09:13:12.483Z,78.50
2022-12-08T09:15:39.339Z,78.60
2022-12-08T09:18:08.796Z,77.77
2022-12-08T09:20:35.528Z,77.37
2022-12-08T09:23:02.227Z,77.21
2022-12-08T09:25:29.013Z,77.03
2022-12-08T09:27:55.632Z,77.22
2022-12-08T09:30:23.176Z,76.70
2022-12-08T09:32:50.061Z,76.91
2022-12-08T09:35:16.807Z,76.00
2022-12-08T09:37:43.566Z,76.59
2022-12-08T09:40:15.136Z,75.45
2022-12-08T09:43:08.970Z,75.66
2022-12-08T09:45:35.922Z,75.90
2022-12-08T09:48:22.882Z,75.96
2022-12-08T09:50:56.061Z,76.38
2022-12-08T09:53:35.801Z,76.97
2022-12-08T09:56:14.051Z,76.88
2022-12-08T09:58:56.259Z,77.41
2022-12-08T10:01:41.821Z,77.12
2022-12-08T10:04:36.329Z,76.59
2022-12-08T10:07:21.922Z,76.02
2022-12-08T10:10:11.254Z,76.95
2022-12-08T10:12:59.395Z,76.46
2022-12-08T10:15:28.924Z,76.48
2022-12-08T10:17:59.814Z,76.07
2022-12-08T10:20:35.626Z,76.47
2022-12-08T10:23:16.132Z,76.13
2022-12-08T10:25:53.447Z,75.67
2022-12-08T10:28:20.098Z,76.21
2022-12-08T10:30:46.884Z,76.85
2022-12-08T10:33:16.762Z,76.36
2022-12-08T10:35:45.027Z,77.69
2022-12-08T10:38:19.120Z,77.62
2022-12-08T10:40:47.215Z,77.57
2022-12-08T10:43:33.242Z,78.09
2022-12-08T10:46:16.170Z,77.86
2022-12-08T10:49:01.722Z,77.59
2022-12-08T10:51:34.288Z,78.11
2022-12-08T10:54:01.608Z,78.35
2022-12-08T10:56:31.006Z,77.62
2022-12-08T10:59:16.856Z,77.99
2022-12-08T11:01:48.434Z,78.30
2022-12-08T11:04:36.457Z,78.15
2022-12-08T11:07:05.619Z,78.61
2022-12-08T11:09:41.975Z,77.54
2022-12-08T11:12:14.512Z,77.83
2022-12-08T11:14:43.968Z,78.32
2022-12-08T11:17:17.908Z,78.53
2022-12-08T11:19:55.692Z,78.39
2022-12-08T11:22:29.836Z,77.96
2022-12-08T11:25:02.210Z,78.15
2022-12-08T11:27:29.154Z,78.12
2022-12-08T11:29:56.353Z,78.41
2022-12-08T11:32:22.948Z,78.58
2022-12-08T11:34:57.939Z,78.26
2022-12-08T11:37:37.713Z,78.37
2022-12-08T11:40:15.722Z,78.41
2022-12-08T11:43:09.571Z,77.99
2022-12-08T11:45:36.857Z,77.88
2022-12-08T11:48:17.228Z,78.18
2022-12-08T11:51:14.964Z,78.40
2022-12-08T11:53:51.469Z,78.06
2022-12-08T11:56:42.349Z,78.09
2022-12-08T11:59:25.023Z,78.27
2022-12-08T12:01:52.322Z,77.74
2022-12-08T12:04:27.769Z,78.02
2022-12-08T12:07:14.035Z,77.80
2022-12-08T12:10:05.728Z,77.06
2022-12-08T12:12:58.550Z,77.04
2022-12-08T12:15:58.865Z,76.81
2022-12-08T12:18:47.211Z,76.73
2022-12-08T12:21:32.299Z,77.03
2022-12-08T12:24:03.598Z,76.81
2022-12-08T12:26:37.124Z,76.82
2022-12-08T12:29:17.206Z,76.97
2022-12-08T12:31:54.330Z,76.74
2022-12-08T12:34:25.480Z,76.30
2022-12-08T12:37:38.508Z,76.88
2022-12-08T12:40:18.875Z,76.79
2022-12-08T12:42:51.755Z,76.02
2022-12-08T12:45:20.168Z,76.77
2022-12-08T12:47:56.587Z,76.40
2022-12-08T12:50:32.910Z,76.63
2022-12-08T12:53:18.048Z,76.79
2022-12-08T12:56:03.924Z,77.11
2022-12-08T12:58:30.522Z,77.59
2022-12-08T13:01:49.982Z,77.91
2022-12-08T13:04:17.654Z,78.05
2022-12-08T13:06:49.174Z,77.44
2022-12-08T13:09:29.008Z,77.56
2022-12-08T13:12:00.171Z,77.67
2022-12-08T13:14:48.777Z,76.96
2022-12-08T13:17:36.322Z,76.41
2022-12-08T13:20:06.736Z,76.54
2022-12-08T13:22:50.259Z,76.91
2022-12-08T13:25:44.837Z,76.53
2022-12-08T13:28:24.665Z,76.25
2022-12-08T13:31:01.637Z,76.77
2022-12-08T13:33:40.275Z,76.98
2022-12-08T13:36:27.984Z,76.82
2022-12-08T13:38:58.020Z,77.23
2022-12-08T13:41:34.505Z,76.94
2022-12-08T13:58:48.298Z,77.30
2022-12-08T14:01:24.189Z,77.56
2022-12-08T14:06:49.705Z,77.68
2022-12-08T14:09:21.075Z,77.53
2022-12-08T14:11:52.591Z,77.79
2022-12-08T14:15:00.529Z,77.86
2022-12-08T14:17:19.802Z,78.18
2022-12-08T14:19:58.389Z,78.13
2022-12-08T14:22:31.884Z,78.18
2022-12-08T14:24:58.613Z,78.42
2022-12-08T14:27:27.351Z,78.37
2022-12-08T14:30:13.270Z,78.51
2022-12-08T14:32:52.526Z,78.47
2022-12-08T14:35:29.433Z,78.96
2022-12-08T14:37:58.959Z,78.56
2022-12-08T14:40:37.381Z,78.59
2022-12-08T14:43:10.138Z,78.76
2022-12-08T14:45:42.872Z,78.34
2022-12-08T14:48:42.703Z,78.28
2022-12-08T14:51:21.541Z,78.43
2022-12-08T14:53:55.277Z,78.72
2022-12-08T14:56:37.823Z,78.50
2022-12-08T14:59:23.185Z,78.19
2022-12-08T15:01:52.684Z,78.23
2022-12-08T15:04:24.734Z,78.43
2022-12-08T15:07:13.640Z,78.45
2022-12-08T15:09:42.885Z,78.38
2022-12-08T15:12:12.715Z,78.05
2022-12-08T15:14:55.607Z,77.91
2022-12-08T15:17:40.649Z,78.34
2022-12-08T15:20:33.395Z,78.97
2022-12-08T15:23:02.220Z,78.14
2022-12-08T15:25:29.211Z,78.89
2022-12-08T15:27:58.753Z,79.15
2022-12-08T15:30:26.502Z,78.71
2022-12-08T15:32:54.289Z,78.79
2022-12-08T15:35:21.365Z,77.73
2022-12-08T15:37:48.169Z,77.42
2022-12-08T15:40:20.690Z,77.50
2022-12-08T15:42:50.369Z,76.94
2022-12-08T15:45:17.431Z,77.40
2022-12-08T15:47:45.694Z,77.34
2022-12-08T15:50:23.218Z,77.15
2022-12-08T15:52:52.355Z,76.71
2022-12-08T15:55:20.966Z,77.14
2022-12-08T16:00:57.465Z,76.33
2022-12-08T16:07:04.751Z,76.51
2022-12-08T16:09:13.239Z,76.58
2022-12-08T16:12:08.293Z,77.00
2022-12-08T16:17:24.991Z,76.91
2022-12-08T16:19:51.812Z,76.65
2022-12-08T16:23:07.570Z,76.78
2022-12-08T16:25:21.795Z,76.09
2022-12-08T16:28:12.376Z,76.41
2022-12-08T16:30:40.449Z,76.52
2022-12-08T16:33:07.277Z,76.40
2022-12-08T16:35:34.028Z,75.91
2022-12-08T16:38:01.057Z,75.83
2022-12-08T16:40:27.736Z,76.08
2022-12-08T16:42:54.477Z,76.06
2022-12-08T16:45:24.096Z,76.18
2022-12-08T16:47:59.741Z,76.13
2022-12-08T16:50:32.298Z,76.39
2022-12-08T16:53:06.156Z,76.01
2022-12-08T16:55:34.773Z,76.52
2022-12-08T16:58:03.364Z,76.70
2022-12-08T17:00:36.740Z,76.70
2022-12-08T17:03:05.428Z,76.46
2022-12-08T17:05:32.577Z,76.35
2022-12-08T17:08:01.078Z,76.62
2022-12-08T17:10:31.978Z,76.64
2022-12-08T17:13:02.038Z,76.64
2022-12-08T17:15:28.957Z,76.68
2022-12-08T17:17:56.044Z,76.77
2022-12-08T17:20:28.071Z,76.85
2022-12-08T17:22:58.180Z,76.81
2022-12-08T17:25:28.193Z,76.76
2022-12-08T17:27:56.482Z,77.00
2022-12-08T17:30:23.667Z,76.19
2022-12-08T17:32:52.807Z,76.17
2022-12-08T17:35:19.985Z,76.30
2022-12-08T17:37:47.210Z,76.82
2022-12-08T17:40:14.378Z,76.88
2022-12-08T17:42:42.462Z,77.02
2022-12-08T17:45:09.751Z,76.87
2022-12-08T17:47:37.293Z,77.00
2022-12-08T17:50:05.332Z,76.46
2022-12-08T17:52:32.599Z,76.70
2022-12-08T17:54:59.843Z,76.99
2022-12-08T17:57:26.635Z,77.10
2022-12-08T17:59:53.517Z,76.82
2022-12-08T18:02:20.278Z,76.99
2022-12-08T18:04:48.134Z,77.29
2022-12-08T18:07:14.923Z,77.60
2022-12-08T18:09:42.042Z,77.61
2022-12-08T18:12:11.920Z,77.76
2022-12-08T18:14:40.617Z,77.82
2022-12-08T18:17:09.049Z,77.84
2022-12-08T18:19:36.176Z,78.44
2022-12-08T18:22:03.325Z,78.49
2022-12-08T18:24:30.513Z,78.53
2022-12-08T18:26:58.995Z,78.30
2022-12-08T18:29:26.104Z,78.63
2022-12-08T18:31:54.033Z,78.91
2022-12-08T18:34:21.094Z,78.90
2022-12-08T18:36:48.667Z,78.78
2022-12-08T18:39:42.879Z,78.87
2022-12-08T18:42:25.272Z,78.92
2022-12-08T18:45:01.969Z,79.08
2022-12-08T18:47:29.228Z,78.81
2022-12-08T18:49:55.957Z,79.06
2022-12-08T18:52:29.622Z,78.70
2022-12-08T18:55:07.483Z,78.96
2022-12-08T18:57:38.597Z,78.92
2022-12-08T19:00:06.923Z,78.17
2022-12-08T19:02:34.013Z,77.88
2022-12-08T19:05:01.683Z,78.32
2022-12-08T19:07:28.890Z,78.32
2022-12-08T19:09:56.236Z,78.37
2022-12-08T19:12:23.054Z,77.91
2022-12-08T19:14:52.169Z,78.38
2022-12-08T19:17:22.199Z,78.41
2022-12-08T19:19:49.124Z,78.03
2022-12-08T19:22:15.835Z,78.35
2022-12-08T19:24:43.979Z,77.91
2022-12-08T19:27:10.833Z,77.68
2022-12-08T19:29:37.697Z,77.81
2022-12-08T19:32:05.798Z,77.80
2022-12-08T19:34:32.716Z,77.88
2022-12-08T19:36:59.860Z,78.05
2022-12-08T19:39:45.357Z,78.24
2022-12-08T19:42:33.317Z,78.09
2022-12-08T19:45:06.969Z,77.73
2022-12-08T19:47:34.167Z,77.69
2022-12-08T19:50:20.250Z,78.22
2022-12-08T19:52:47.242Z,78.26
2022-12-08T19:55:14.063Z,77.98
2022-12-08T19:57:46.902Z,78.11
2022-12-08T20:00:16.732Z,78.48
2022-12-08T20:02:45.992Z,77.97
2022-12-08T20:05:15.732Z,78.19
2022-12-08T20:07:43.171Z,78.07
2022-12-08T20:10:16.864Z,78.40
2022-12-08T20:12:43.701Z,78.50
2022-12-08T20:15:11.100Z,78.30
2022-12-08T20:17:38.311Z,78.90
2022-12-08T20:20:07.819Z,78.40
2022-12-08T20:22:35.249Z,78.78
2022-12-08T20:25:02.807Z,78.63
2022-12-08T20:27:29.588Z,78.84
2022-12-08T20:29:56.300Z,79.30
2022-12-08T20:32:23.093Z,79.23
2022-12-08T20:34:49.802Z,79.31
2022-12-08T20:37:16.721Z,79.45
2022-12-08T20:39:43.476Z,79.42
2022-12-08T20:42:13.817Z,79.46
2022-12-08T20:44:44.274Z,79.76
2022-12-08T20:47:12.867Z,79.52
2022-12-08T20:49:39.740Z,79.56
2022-12-08T20:52:07.024Z,79.18
2022-12-08T20:54:34.887Z,78.98
2022-12-08T20:57:01.805Z,79.36
2022-12-08T20:59:28.649Z,79.12
2022-12-08T21:01:55.871Z,79.17
2022-12-08T21:04:23.401Z,79.47
2022-12-08T21:06:50.474Z,79.49
2022-12-08T21:09:17.752Z,78.87
2022-12-08T21:11:45.080Z,79.24
2022-12-08T21:14:12.546Z,79.11
2022-12-08T21:16:39.281Z,79.24
2022-12-08T21:19:06.228Z,80.01
2022-12-08T21:21:33.094Z,79.85
2022-12-08T21:24:00.067Z,79.62
2022-12-08T21:26:26.981Z,79.82
2022-12-08T21:28:57.880Z,79.15
2022-12-08T21:31:29.342Z,79.96
2022-12-08T21:33:56.363Z,79.73
2022-12-08T21:36:23.923Z,79.78
2022-12-08T21:38:51.310Z,79.70
2022-12-08T21:41:39.870Z,80.28
2022-12-08T21:44:09.560Z,79.92
2022-12-08T21:46:36.828Z,80.37
2022-12-08T21:49:04.773Z,80.35
2022-12-08T21:51:33.203Z,79.65
2022-12-08T21:54:00.717Z,80.19
2022-12-08T21:56:43.340Z,80.23
2022-12-08T21:59:18.224Z,79.89
2022-12-08T22:01:45.344Z,80.70
2022-12-08T22:04:17.470Z,80.13
2022-12-08T22:06:44.544Z,80.50
2022-12-08T22:09:13.444Z,80.55
2022-12-08T22:11:41.722Z,80.32
2022-12-08T22:14:14.160Z,80.58
2022-12-08T22:16:42.227Z,81.19
2022-12-08T22:19:09.125Z,81.58
2022-12-08T22:21:35.973Z,81.89
2022-12-08T22:24:02.705Z,81.89
2022-12-08T22:26:29.429Z,82.28
2022-12-08T22:28:56.217Z,82.03
2022-12-08T22:31:23.075Z,82.56
2022-12-08T22:33:51.114Z,82.27
2022-12-08T22:36:20.976Z,82.63
2022-12-08T22:38:47.888Z,82.25
2022-12-08T22:41:15.229Z,82.50
2022-12-08T22:43:42.440Z,82.44
2022-12-08T22:46:14.425Z,82.20
2022-12-08T22:48:41.623Z,81.87
2022-12-08T22:51:09.469Z,82.08
2022-12-08T22:53:36.424Z,82.46
2022-12-08T22:56:07.443Z,82.25
2022-12-08T22:58:34.440Z,82.12
2022-12-08T23:01:01.694Z,82.38
2022-12-08T23:03:28.773Z,82.73
2022-12-08T23:05:55.627Z,83.40
2022-12-08T23:08:22.515Z,83.01
2022-12-08T23:10:51.851Z,83.61
2022-12-08T23:13:19.726Z,83.39
2022-12-08T23:15:46.833Z,83.23
2022-12-08T23:18:16.274Z,83.18
2022-12-08T23:20:42.964Z,83.21
2022-12-08T23:23:09.832Z,83.23
2022-12-08T23:25:43.413Z,83.74
2022-12-08T23:28:10.825Z,83.60
2022-12-08T23:30:40.149Z,83.60
2022-12-08T23:33:06.937Z,84.06
2022-12-08T23:35:33.746Z,83.96
2022-12-08T23:38:00.389Z,83.95
2022-12-08T23:40:27.148Z,84.35
2022-12-08T23:42:53.974Z,84.42
2022-12-08T23:45:20.803Z,84.79
2022-12-08T23:47:47.660Z,84.39
2022-12-08T23:50:14.525Z,84.83
2022-12-08T23:52:41.272Z,85.03
2022-12-08T23:55:08.802Z,84.36
2022-12-08T23:57:36.638Z,84.51
